Time;durP1;ratioP1;P1;durP2;ratioP2;P2;SDS_P1;SDS_P2;PMS_P1;PMS_P2;Temp;Humidity;BMP_temperature;BMP_pressure;BME280_temperature;BME280_humidity;BME280_pressure;Samples;Min_cycle;Max_cycle;Signal;HPM_P1;HPM_P2
2022/06/23 00:02:45;;;;;;;3.83;2.20;;;14.80;94.80;;;;;;4619142;22;20239;-64
2022/06/23 00:05:16;;;;;;;4.87;2.67;;;14.80;95.20;;;;;;5093112;28;20185;-62
2022/06/23 00:07:46;;;;;;;4.07;1.93;;;14.80;95.40;;;;;;5089967;28;20227;-62
2022/06/23 00:10:23;;;;;;;4.33;2.03;;;14.70;95.70;;;;;;5078228;28;20181;-62
2022/06/23 00:12:49;;;;;;;5.13;2.27;;;14.70;96.10;;;;;;5058465;28;20180;-62
2022/06/23 00:15:28;;;;;;;2.63;1.63;;;14.70;96.30;;;;;;5092851;28;20578;-61
2022/06/23 00:17:58;;;;;;;4.53;2.10;;;14.70;96.60;;;;;;5082948;28;20184;-62
2022/06/23 00:20:31;;;;;;;3.37;2.13;;;14.60;96.80;;;;;;5072966;28;20180;-61
2022/06/23 00:23:14;;;;;;;4.93;2.40;;;14.60;97.00;;;;;;5072811;28;20548;-67
2022/06/23 00:25:49;;;;;;;4.73;1.93;;;14.60;97.10;;;;;;5058915;28;20251;-61
2022/06/23 00:28:42;;;;;;;4.10;2.10;;;14.60;97.10;;;;;;5093216;28;20265;-61
2022/06/23 00:31:20;;;;;;;6.13;2.20;;;14.70;97.10;;;;;;5092849;28;20577;-62
2022/06/23 00:33:46;;;;;;;4.53;1.87;;;14.70;97.00;;;;;;5093032;28;20181;-62
2022/06/23 00:36:30;;;;;;;6.13;1.87;;;14.70;97.10;;;;;;5092730;28;20610;-63
2022/06/23 00:38:56;;;;;;;4.10;2.00;;;14.70;96.90;;;;;;5092910;28;20176;-62
2022/06/23 00:41:30;;;;;;;3.77;2.20;;;14.60;97.20;;;;;;5093311;28;20181;-62
2022/06/23 00:44:01;;;;;;;7.80;2.23;;;14.70;97.10;;;;;;5079057;28;20212;-62
2022/06/23 00:46:31;;;;;;;2.83;1.87;;;14.70;97.10;;;;;;5073216;28;20208;-62
2022/06/23 00:49:37;;;;;;;3.87;2.00;;;14.70;97.20;;;;;;5072721;28;20300;-64
2022/06/23 00:52:18;;;;;;;7.13;2.33;;;14.60;97.60;;;;;;5061013;28;20220;-63
2022/06/23 00:54:49;;;;;;;5.23;2.00;;;14.50;98.50;;;;;;5072448;28;20646;-62
2022/06/23 00:57:26;;;;;;;3.33;2.20;;;14.40;98.80;;;;;;5072090;28;20205;-62
2022/06/23 00:59:59;;;;;;;7.83;2.47;;;14.30;99.20;;;;;;5072223;28;20191;-62
2022/06/23 01:02:37;;;;;;;8.60;2.30;;;14.20;99.90;;;;;;5071817;28;20220;-62
2022/06/23 01:05:15;;;;;;;3.70;2.03;;;14.10;99.90;;;;;;5071781;28;20704;-63
2022/06/23 01:07:50;;;;;;;3.47;2.20;;;14.20;99.90;;;;;;5072343;28;20293;-62
2022/06/23 01:10:43;;;;;;;5.33;2.50;;;14.40;99.40;;;;;;5071619;28;20185;-62
2022/06/23 01:13:49;;;;;;;6.43;1.97;;;14.40;99.00;;;;;;5072321;28;20326;-62
2022/06/23 01:16:22;;;;;;;3.70;1.90;;;14.50;98.90;;;;;;5072006;28;20184;-62
2022/06/23 01:18:50;;;;;;;6.10;1.80;;;14.50;98.80;;;;;;5092334;28;20699;-62
2022/06/23 01:21:36;;;;;;;5.53;2.43;;;14.50;98.60;;;;;;5091717;28;20284;-62
2022/06/23 01:24:21;;;;;;;2.53;1.83;;;14.50;98.60;;;;;;5091953;28;20181;-62
2022/06/23 01:27:23;;;;;;;7.70;2.03;;;14.60;98.50;;;;;;5091638;28;20194;-62
2022/06/23 01:30:09;;;;;;;5.47;2.20;;;14.60;98.60;;;;;;5092090;28;20219;-62
2022/06/23 01:32:40;;;;;;;5.70;1.80;;;14.50;98.80;;;;;;5092086;28;20242;-62
2022/06/23 01:35:16;;;;;;;5.63;1.77;;;14.50;98.90;;;;;;5091923;28;20227;-62
2022/06/23 01:37:49;;;;;;;4.37;1.93;;;14.50;99.00;;;;;;5091983;28;20712;-62
2022/06/23 01:40:26;;;;;;;5.40;2.10;;;14.50;99.10;;;;;;5091899;28;20184;-62
2022/06/23 01:43:18;;;;;;;6.67;2.03;;;14.40;99.10;;;;;;5091971;28;20168;-61
2022/06/23 01:46:09;;;;;;;4.07;2.17;;;14.50;99.00;;;;;;5086961;28;20193;-62
2022/06/23 01:48:54;;;;;;;7.73;2.40;;;14.50;99.00;;;;;;5091974;28;20205;-63
2022/06/23 01:51:47;;;;;;;2.67;1.70;;;14.50;99.10;;;;;;5091636;28;20742;-62
2022/06/23 01:54:22;;;;;;;5.17;2.23;;;14.50;99.10;;;;;;5081661;28;20189;-59
2022/06/23 01:57:10;;;;;;;3.90;1.97;;;14.50;99.10;;;;;;5091379;28;20180;-61
2022/06/23 01:59:42;;;;;;;4.00;1.97;;;14.40;99.20;;;;;;5090895;28;20185;-61
2022/06/23 02:02:11;;;;;;;6.20;2.50;;;14.40;99.30;;;;;;5091435;28;20512;-60
2022/06/23 02:04:45;;;;;;;5.17;2.10;;;14.50;99.30;;;;;;5090608;28;20224;-61
2022/06/23 02:07:22;;;;;;;4.07;1.83;;;14.40;99.40;;;;;;5091505;28;20196;-61
2022/06/23 02:09:51;;;;;;;6.37;2.10;;;14.40;99.60;;;;;;5091832;28;20195;-60
2022/06/23 02:12:25;;;;;;;7.27;2.23;;;14.40;99.70;;;;;;5091396;28;20169;-60
2022/06/23 02:15:17;;;;;;;7.70;1.90;;;14.30;99.90;;;;;;5091481;28;20242;-61
2022/06/23 02:18:06;;;;;;;8.30;2.10;;;14.30;99.90;;;;;;5075417;28;20647;-61
2022/06/23 02:21:00;;;;;;;5.87;2.30;;;14.20;99.90;;;;;;5071756;28;20504;-61
2022/06/23 02:23:35;;;;;;;2.53;1.83;;;14.10;99.90;;;;;;5071064;28;20180;-61
2022/06/23 02:26:10;;;;;;;4.77;2.20;;;14.10;99.90;;;;;;5071371;28;20173;-61
2022/06/23 02:28:53;;;;;;;3.67;2.23;;;14.20;99.90;;;;;;5071158;28;20212;-60
2022/06/23 02:31:45;;;;;;;2.73;1.57;;;14.20;99.90;;;;;;5070958;28;20244;-60
2022/06/23 02:34:17;;;;;;;4.33;2.27;;;14.30;99.90;;;;;;5070887;28;20189;-61
2022/06/23 02:37:02;;;;;;;6.77;2.40;;;14.30;99.90;;;;;;5072504;28;20174;-61
2022/06/23 02:39:47;;;;;;;2.40;1.63;;;14.40;99.90;;;;;;5074957;28;20231;-62
2022/06/23 02:42:28;;;;;;;4.50;2.10;;;14.40;99.90;;;;;;5074489;28;20256;-60
2022/06/23 02:45:07;;;;;;;6.07;2.13;;;14.40;99.90;;;;;;5074775;28;20278;-61
2022/06/23 02:47:57;;;;;;;3.47;1.80;;;14.40;99.90;;;;;;5075084;28;20208;-61
2022/06/23 02:50:47;;;;;;;4.40;2.20;;;14.40;99.90;;;;;;5074398;28;20634;-60
2022/06/23 02:53:29;;;;;;;8.90;2.10;;;14.40;99.90;;;;;;5074585;28;20182;-61
2022/06/23 02:56:22;;;;;;;5.73;2.40;;;14.40;99.90;;;;;;5074787;28;20174;-61
2022/06/23 02:59:04;;;;;;;9.37;2.93;;;14.40;99.90;;;;;;5074456;28;20177;-61
2022/06/23 03:01:52;;;;;;;7.77;2.60;;;14.40;99.90;;;;;;5074795;28;20203;-61
2022/06/23 03:04:23;;;;;;;5.57;2.20;;;14.40;99.90;;;;;;5061698;28;20313;-60
2022/06/23 03:07:02;;;;;;;4.07;2.03;;;14.40;99.90;;;;;;5074231;28;20186;-61
2022/06/23 03:09:50;;;;;;;5.67;2.40;;;14.40;99.90;;;;;;5074164;28;20223;-61
2022/06/23 03:12:34;;;;;;;4.97;2.57;;;14.40;99.90;;;;;;5073767;28;20178;-60
2022/06/23 03:15:25;;;;;;;7.27;2.40;;;14.40;99.90;;;;;;5074336;28;20197;-61
2022/06/23 03:18:10;;;;;;;6.47;2.13;;;14.40;99.90;;;;;;5086115;28;20640;-62
2022/06/23 03:21:18;;;;;;;3.60;2.30;;;14.50;99.90;;;;;;5094312;28;20659;-61
2022/06/23 03:23:51;;;;;;;5.50;2.30;;;14.50;99.90;;;;;;5094167;28;20173;-61
2022/06/23 03:26:33;;;;;;;7.03;2.47;;;14.50;99.90;;;;;;5093881;28;20180;-61
2022/06/23 03:29:17;;;;;;;4.60;2.40;;;14.50;99.90;;;;;;5093608;28;20212;-61
2022/06/23 03:31:55;;;;;;;5.37;2.10;;;14.50;99.90;;;;;;5093853;28;20192;-60
2022/06/23 03:34:27;;;;;;;6.33;2.30;;;14.50;99.90;;;;;;5093529;28;20267;-61
2022/06/23 03:37:07;;;;;;;4.23;2.37;;;14.60;99.90;;;;;;5093758;28;20588;-60
2022/06/23 03:42:59;;;;;;;4.67;2.70;;;14.70;99.90;;;;;;5092995;28;20191;-61
2022/06/23 03:46:00;;;;;;;4.37;2.30;;;14.70;99.90;;;;;;5093561;28;20177;-61
2022/06/23 03:48:36;;;;;;;7.87;2.73;;;14.70;99.90;;;;;;4990791;28;20224;-61
2022/06/23 03:51:47;;;;;;;7.57;2.63;;;14.80;99.90;;;;;;5079189;28;20574;-61
2022/06/23 03:54:17;;;;;;;5.83;2.53;;;14.90;99.90;;;;;;4991310;28;20307;-60
2022/06/23 03:56:59;;;;;;;6.77;2.43;;;15.00;99.80;;;;;;4991608;28;20211;-61
2022/06/23 03:59:35;;;;;;;3.10;2.03;;;15.00;99.60;;;;;;5057815;28;20187;-61
2022/06/23 04:02:12;;;;;;;6.80;2.87;;;15.10;99.40;;;;;;5093245;28;20585;-60
2022/06/23 04:05:10;;;;;;;7.67;2.90;;;15.20;99.10;;;;;;5093065;28;20228;-61
2022/06/23 04:07:47;;;;;;;7.83;1.77;;;15.20;98.90;;;;;;5093198;28;20204;-62
2022/06/23 04:10:19;;;;;;;4.27;2.00;;;15.30;98.70;;;;;;5093124;28;20174;-60
2022/06/23 04:12:52;;;;;;;10.03;3.93;;;15.40;98.40;;;;;;5092936;28;20627;-61
2022/06/23 04:15:28;;;;;;;4.73;2.43;;;15.60;98.60;;;;;;5093309;28;20518;-62
2022/06/23 04:18:05;;;;;;;3.80;2.60;;;15.60;98.10;;;;;;5080273;28;20188;-61
2022/06/23 04:20:46;;;;;;;5.60;2.37;;;15.70;98.10;;;;;;5072137;28;20185;-61
2022/06/23 04:23:24;;;;;;;5.20;2.30;;;15.80;97.90;;;;;;5072334;28;20546;-61
2022/06/23 04:26:04;;;;;;;6.53;2.30;;;15.80;97.70;;;;;;5072487;28;20669;-61
2022/06/23 04:28:42;;;;;;;9.63;3.23;;;15.90;97.70;;;;;;5072172;28;20281;-67
2022/06/23 04:31:12;;;;;;;5.43;2.10;;;15.90;98.10;;;;;;5054086;28;20211;-60
2022/06/23 04:33:39;;;;;;;7.07;2.73;;;15.90;97.70;;;;;;5072377;28;20189;-61
2022/06/23 04:36:06;;;;;;;10.50;3.00;;;15.80;98.10;;;;;;5054581;28;20640;-61
2022/06/23 04:38:43;;;;;;;9.43;2.60;;;15.90;98.30;;;;;;5072155;28;20225;-62
2022/06/23 04:41:24;;;;;;;15.43;2.57;;;15.90;98.40;;;;;;5071702;28;20176;-61
2022/06/23 04:44:01;;;;;;;12.03;3.40;;;15.90;98.30;;;;;;5071733;28;20310;-64
2022/06/23 04:46:30;;;;;;;20.63;3.17;;;15.90;98.40;;;;;;5071715;28;20188;-61
2022/06/23 04:49:05;;;;;;;9.50;3.23;;;15.90;98.60;;;;;;5071580;28;20205;-61
2022/06/23 04:51:35;;;;;;;8.93;3.33;;;16.00;98.50;;;;;;5070945;28;20189;-61
2022/06/23 04:54:16;;;;;;;11.60;2.60;;;16.20;98.60;;;;;;5071509;28;20287;-62
2022/06/23 04:56:55;;;;;;;9.27;2.83;;;16.20;98.40;;;;;;5071869;28;20667;-60
2022/06/23 04:59:35;;;;;;;12.73;2.83;;;16.20;98.30;;;;;;5071352;28;20169;-60
2022/06/23 05:02:24;;;;;;;12.50;3.50;;;16.30;98.60;;;;;;5053149;28;20252;-62
2022/06/23 05:05:42;;;;;;;7.27;3.27;;;16.50;98.50;;;;;;5070931;28;20178;-61
2022/06/23 05:08:25;;;;;;;7.73;2.87;;;16.60;98.10;;;;;;5025956;28;20304;-61
2022/06/23 05:11:05;;;;;;;7.93;2.90;;;16.80;98.00;;;;;;5071522;28;20192;-60
2022/06/23 05:13:56;;;;;;;5.67;2.43;;;16.90;97.80;;;;;;5071160;28;20178;-60
2022/06/23 05:16:40;;;;;;;6.17;2.77;;;17.00;97.60;;;;;;5070846;28;20185;-62
2022/06/23 05:19:12;;;;;;;6.20;2.73;;;17.10;97.40;;;;;;5070910;28;20675;-60
2022/06/23 05:21:44;;;;;;;4.10;2.40;;;17.30;97.20;;;;;;5070903;28;20527;-60
2022/06/23 05:24:23;;;;;;;6.70;2.50;;;17.20;96.90;;;;;;5070864;28;20180;-62
2022/06/23 05:26:57;;;;;;;8.53;2.77;;;17.10;97.20;;;;;;5070784;28;20256;-61
2022/06/23 05:29:51;;;;;;;5.83;2.50;;;17.20;97.40;;;;;;5071063;28;20690;-63
2022/06/23 05:32:38;;;;;;;9.23;2.70;;;17.40;97.10;;;;;;5070640;28;20228;-61
2022/06/23 05:35:12;;;;;;;13.30;3.20;;;17.40;97.00;;;;;;5070676;28;20181;-62
2022/06/23 05:37:46;;;;;;;8.53;2.43;;;17.60;97.10;;;;;;5070713;28;20173;-62
2022/06/23 05:40:19;;;;;;;4.77;2.00;;;17.70;96.40;;;;;;5074878;28;20249;-63
2022/06/23 05:42:49;;;;;;;6.07;2.10;;;17.70;96.60;;;;;;5089903;28;20728;-60
2022/06/23 05:45:44;;;;;;;8.33;2.07;;;17.70;96.10;;;;;;5089916;28;20284;-61
2022/06/23 05:48:39;;;;;;;6.77;2.20;;;17.70;96.20;;;;;;5076146;28;20352;-61
2022/06/23 05:51:14;;;;;;;4.23;2.07;;;17.70;96.40;;;;;;5090338;28;20537;-63
2022/06/23 05:53:59;;;;;;;3.27;1.83;;;17.70;96.10;;;;;;5084557;28;20188;-61
2022/06/23 05:56:46;;;;;;;9.07;2.67;;;17.80;95.90;;;;;;5089994;28;20483;-61
2022/06/23 05:59:20;;;;;;;4.40;1.93;;;17.90;96.00;;;;;;5072010;28;20531;-61
2022/06/23 06:01:57;;;;;;;17.17;1.73;;;17.90;95.70;;;;;;5077803;28;20314;-60
2022/06/23 06:04:28;;;;;;;3.17;1.80;;;18.00;95.30;;;;;;5089701;28;20595;-62
2022/06/23 06:06:55;;;;;;;8.43;2.00;;;18.10;95.10;;;;;;5090391;28;20547;-61
2022/06/23 06:09:36;;;;;;;4.30;1.80;;;18.20;94.60;;;;;;5090134;28;20189;-62
2022/06/23 06:12:33;;;;;;;4.80;1.97;;;18.20;94.60;;;;;;5091835;28;20199;-61
2022/06/23 06:15:04;;;;;;;3.90;1.50;;;18.30;94.20;;;;;;5092142;28;20235;-63
2022/06/23 06:17:33;;;;;;;5.17;1.73;;;18.40;93.90;;;;;;5092517;28;20195;-62
2022/06/23 06:20:03;;;;;;;4.07;2.10;;;18.50;94.10;;;;;;5094294;28;20202;-63
2022/06/23 06:22:52;;;;;;;4.37;2.20;;;18.60;93.70;;;;;;5093417;28;20185;-65
2022/06/23 06:25:31;;;;;;;3.63;1.90;;;18.80;93.50;;;;;;5092670;28;20199;-63
2022/06/23 06:28:08;;;;;;;4.80;1.65;;;19.00;93.30;;;;;;5073675;28;20303;-62
2022/06/23 06:30:38;;;;;;;9.70;2.20;;;19.10;93.10;;;;;;5076479;28;20575;-62
2022/06/23 06:33:04;;;;;;;6.90;1.95;;;19.20;92.90;;;;;;5069029;28;20485;-66
2022/06/23 06:35:36;;;;;;;12.45;2.08;;;19.30;92.20;;;;;;5061008;28;20303;-64
2022/06/23 06:38:08;;;;;;;3.83;1.33;;;19.30;91.90;;;;;;5074742;28;20245;-64
2022/06/23 06:40:36;;;;;;;4.85;1.73;;;19.20;91.20;;;;;;5084057;28;20417;-62
2022/06/23 06:43:10;;;;;;;3.90;1.55;;;19.30;91.60;;;;;;5093945;28;20253;-63
2022/06/23 06:45:37;;;;;;;5.90;1.75;;;19.40;91.30;;;;;;5093817;28;20219;-64
2022/06/23 06:48:12;;;;;;;2.27;1.33;;;19.40;91.70;;;;;;5093482;28;20322;-63
2022/06/23 06:50:44;;;;;;;2.35;1.40;;;19.50;90.70;;;;;;5075945;28;20180;-65
2022/06/23 06:53:38;;;;;;;4.00;1.48;;;19.50;91.10;;;;;;5093405;28;20181;-64
2022/06/23 06:56:31;;;;;;;6.25;1.35;;;19.50;91.10;;;;;;5083880;28;20666;-61
2022/06/23 06:59:07;;;;;;;3.83;1.50;;;19.60;91.20;;;;;;5081496;28;21013;-63
2022/06/23 07:01:37;;;;;;;5.95;1.77;;;19.70;90.70;;;;;;5083968;28;20181;-62
2022/06/23 07:04:03;;;;;;;3.95;1.40;;;19.90;90.50;;;;;;5072849;28;20229;-63
2022/06/23 07:06:53;;;;;;;7.05;1.70;;;19.80;90.10;;;;;;5073395;28;20178;-63
2022/06/23 07:09:44;;;;;;;3.15;1.52;;;19.70;90.30;;;;;;5073612;28;20287;-63
2022/06/23 07:12:21;;;;;;;7.72;2.22;;;19.60;90.50;;;;;;5073705;28;20200;-62
2022/06/23 07:14:58;;;;;;;3.47;2.22;;;19.80;90.60;;;;;;5055229;28;20201;-62
2022/06/23 07:17:37;;;;;;;7.78;3.15;;;20.10;90.20;;;;;;5081159;28;20602;-64
2022/06/23 07:20:36;;;;;;;4.82;1.88;;;20.30;88.50;;;;;;5075177;28;20195;-62
2022/06/23 07:23:13;;;;;;;7.18;1.85;;;20.00;88.40;;;;;;5069967;28;20286;-62
2022/06/23 07:25:45;;;;;;;15.75;2.35;;;19.80;90.10;;;;;;5075057;28;20216;-64
2022/06/23 07:28:41;;;;;;;4.53;1.63;;;19.90;90.80;;;;;;5093567;28;20219;-63
2022/06/23 07:31:13;;;;;;;4.80;2.47;;;19.90;90.10;;;;;;5092456;28;20189;-62
2022/06/23 07:33:57;;;;;;;7.35;1.52;;;20.10;89.50;;;;;;5093305;28;20215;-63
2022/06/23 07:36:29;;;;;;;4.68;1.40;;;20.00;88.20;;;;;;5093162;28;20620;-63
2022/06/23 07:39:03;;;;;;;5.05;1.55;;;20.00;88.80;;;;;;5093857;28;20627;-61
2022/06/23 07:41:48;;;;;;;6.97;2.05;;;20.10;88.40;;;;;;5093347;28;20206;-63
2022/06/23 07:44:43;;;;;;;6.38;1.88;;;20.20;87.40;;;;;;5092973;28;20571;-63
2022/06/23 07:47:09;;;;;;;2.45;1.73;;;20.60;87.10;;;;;;5087836;28;20246;-63
2022/06/23 07:49:35;;;;;;;3.22;1.95;;;20.80;85.80;;;;;;5092562;28;20203;-62
2022/06/23 07:52:02;;;;;;;6.88;2.13;;;20.90;86.20;;;;;;5075130;28;20304;-62
2022/06/23 07:54:30;;;;;;;3.42;2.15;;;21.10;84.10;;;;;;5092420;28;20644;-66
2022/06/23 07:56:56;;;;;;;10.23;1.90;;;21.00;83.60;;;;;;5092214;28;20192;-63
2022/06/23 07:59:45;;;;;;;8.30;1.70;;;21.20;83.70;;;;;;5093545;28;20177;-65
2022/06/23 08:02:22;;;;;;;5.75;1.33;;;21.50;82.00;;;;;;5093180;28;20631;-63
2022/06/23 08:05:06;;;;;;;4.03;1.60;;;21.40;81.60;;;;;;5074499;28;20529;-64
2022/06/23 08:07:34;;;;;;;2.53;1.23;;;21.20;82.10;;;;;;5092726;28;20212;-63
2022/06/23 08:10:09;;;;;;;3.53;1.55;;;21.10;80.70;;;;;;5074589;28;20193;-65
2022/06/23 08:12:58;;;;;;;2.80;1.40;;;21.10;82.20;;;;;;5092890;28;20339;-65
2022/06/23 08:18:15;;;;;;;3.80;1.60;;;21.10;82.00;;;;;;5092684;28;20200;-64
2022/06/23 08:20:47;;;;;;;13.23;1.70;;;21.10;81.20;;;;;;5092114;28;20180;-65
2022/06/23 08:23:15;;;;;;;4.65;1.45;;;21.00;82.00;;;;;;5092958;28;20192;-63
2022/06/23 08:25:42;;;;;;;2.17;1.33;;;21.20;81.60;;;;;;5074462;28;20189;-63
2022/06/23 08:28:08;;;;;;;4.57;1.65;;;20.90;80.80;;;;;;5092003;28;20263;-64
2022/06/23 08:30:36;;;;;;;6.30;1.75;;;20.60;81.80;;;;;;5092373;28;20191;-66
2022/06/23 08:33:04;;;;;;;3.35;1.80;;;20.50;82.50;;;;;;5092157;28;20240;-63
2022/06/23 08:35:38;;;;;;;4.40;1.88;;;20.60;82.60;;;;;;5091365;28;20271;-64
2022/06/23 08:38:07;;;;;;;3.50;1.70;;;20.90;82.50;;;;;;5092314;28;20505;-65
2022/06/23 08:40:42;;;;;;;7.35;1.75;;;21.40;82.00;;;;;;5091658;28;20628;-63
2022/06/23 08:43:36;;;;;;;2.22;1.33;;;21.60;80.00;;;;;;5092226;28;20172;-64
2022/06/23 08:46:32;;;;;;;6.32;1.48;;;21.70;78.60;;;;;;5092029;28;20168;-65
2022/06/23 08:48:58;;;;;;;4.22;2.03;;;21.90;77.70;;;;;;5091884;28;20677;-64
2022/06/23 08:51:39;;;;;;;12.35;1.70;;;22.00;77.20;;;;;;5091489;28;20201;-64
2022/06/23 08:54:34;;;;;;;2.35;1.13;;;21.90;77.10;;;;;;5073464;28;20584;-64
2022/06/23 08:57:08;;;;;;;4.70;1.13;;;21.80;77.20;;;;;;5055473;28;20704;-63
2022/06/23 08:59:52;;;;;;;3.20;1.83;;;21.60;77.20;;;;;;5091519;28;20177;-63
2022/06/23 09:02:30;;;;;;;6.68;1.65;;;21.50;78.00;;;;;;5091551;28;20173;-65
2022/06/23 09:05:01;;;;;;;6.22;1.60;;;21.50;78.00;;;;;;5091761;28;20193;-65
2022/06/23 09:07:41;;;;;;;1.27;1.17;;;21.60;77.70;;;;;;5091626;28;20697;-66
2022/06/23 09:10:39;;;;;;;5.20;2.08;;;21.60;76.60;;;;;;5084530;28;20173;-64
2022/06/23 09:13:42;;;;;;;4.55;1.75;;;21.40;76.50;;;;;;5081131;28;20166;-63
2022/06/23 09:16:07;;;;;;;2.20;1.13;;;21.40;77.30;;;;;;5089647;28;20237;-64
2022/06/23 09:18:45;;;;;;;4.07;1.60;;;21.40;77.10;;;;;;5072532;28;20256;-66
2022/06/23 09:21:30;;;;;;;3.83;1.35;;;21.60;76.60;;;;;;5073514;28;20267;-64
2022/06/23 09:24:29;;;;;;;2.88;1.80;;;21.70;75.60;;;;;;5063637;28;20180;-65
2022/06/23 09:27:03;;;;;;;6.63;1.73;;;21.80;75.10;;;;;;5079097;28;20177;-64
2022/06/23 09:29:41;;;;;;;3.33;1.40;;;21.70;75.20;;;;;;5070339;28;20227;-65
2022/06/23 09:32:17;;;;;;;7.25;2.17;;;21.90;75.10;;;;;;5070589;28;20217;-66
2022/06/23 09:35:07;;;;;;;3.15;1.83;;;22.00;75.00;;;;;;5070110;28;20239;-63
2022/06/23 09:38:03;;;;;;;6.70;1.30;;;22.30;73.80;;;;;;5070441;28;20188;-64
2022/06/23 09:40:42;;;;;;;10.85;2.20;;;22.40;73.20;;;;;;5070740;28;20218;-66
2022/06/23 09:43:11;;;;;;;2.90;1.27;;;22.60;73.30;;;;;;5070979;28;20181;-66
2022/06/23 09:45:54;;;;;;;6.88;1.67;;;22.70;71.60;;;;;;5069697;28;20629;-64
2022/06/23 09:48:23;;;;;;;7.55;1.77;;;23.00;71.40;;;;;;5070769;28;20640;-63
2022/06/23 09:51:08;;;;;;;4.65;2.15;;;23.40;71.00;;;;;;5070822;28;20220;-65
2022/06/23 09:53:54;;;;;;;6.65;1.42;;;23.60;69.60;;;;;;5070846;28;20492;-63
2022/06/23 09:56:47;;;;;;;6.65;2.13;;;23.40;69.10;;;;;;5071029;28;20453;-64
2022/06/23 09:59:22;;;;;;;6.35;2.22;;;23.30;69.50;;;;;;5070692;28;20178;-63
2022/06/23 10:02:05;;;;;;;6.07;2.35;;;23.40;70.40;;;;;;5070150;28;20203;-66
2022/06/23 10:04:48;;;;;;;6.65;1.60;;;23.60;70.80;;;;;;5086384;28;20602;-64
2022/06/23 10:07:13;;;;;;;6.78;1.60;;;23.40;71.00;;;;;;5090681;28;20372;-66
2022/06/23 10:09:48;;;;;;;5.75;1.50;;;22.70;71.30;;;;;;5091057;28;20629;-66
2022/06/23 10:12:38;;;;;;;5.38;1.67;;;22.90;72.50;;;;;;5090512;28;20187;-63
2022/06/23 10:15:42;;;;;;;6.22;1.75;;;22.60;73.80;;;;;;5072808;28;20172;-64
2022/06/23 10:18:24;;;;;;;9.68;1.95;;;22.50;73.30;;;;;;4988788;28;20212;-66
2022/06/23 10:21:38;;;;;;;4.05;2.05;;;22.60;73.60;;;;;;4988143;28;20571;-64
2022/06/23 10:24:49;;;;;;;9.75;1.90;;;22.70;73.60;;;;;;5039382;28;20199;-64
2022/06/23 10:27:32;;;;;;;10.10;2.00;;;22.80;71.40;;;;;;5052023;28;20632;-64
2022/06/23 10:30:13;;;;;;;5.22;1.67;;;23.50;70.70;;;;;;5076976;28;20208;-65
2022/06/23 10:33:06;;;;;;;3.72;1.50;;;24.10;69.10;;;;;;5070251;28;20208;-64
2022/06/23 10:35:48;;;;;;;1.88;1.30;;;23.70;69.10;;;;;;5070325;28;20235;-65
2022/06/23 10:38:33;;;;;;;3.38;1.73;;;23.00;71.10;;;;;;5056332;28;20644;-66
2022/06/23 10:40:59;;;;;;;2.63;1.98;;;22.40;72.70;;;;;;5079412;28;20643;-64
2022/06/23 10:43:30;;;;;;;3.38;1.65;;;22.30;73.90;;;;;;5076200;28;20259;-63
2022/06/23 10:46:10;;;;;;;2.72;1.27;;;22.30;73.70;;;;;;5090846;28;20253;-63
2022/06/23 10:48:54;;;;;;;3.33;1.40;;;22.30;73.90;;;;;;5090336;28;20205;-64
2022/06/23 10:51:55;;;;;;;5.78;1.20;;;22.30;74.10;;;;;;5089898;28;20177;-65
2022/06/23 10:54:56;;;;;;;6.45;1.73;;;22.80;73.70;;;;;;5090200;28;20173;-65
2022/06/23 10:57:40;;;;;;;4.80;1.13;;;23.20;72.30;;;;;;5059373;28;20554;-64
2022/06/23 11:00:12;;;;;;;3.30;1.40;;;23.10;72.50;;;;;;5093729;28;20173;-67
2022/06/23 11:03:25;;;;;;;2.17;1.27;;;22.50;73.00;;;;;;5093642;28;20241;-65
2022/06/23 11:06:21;;;;;;;12.55;1.38;;;22.40;73.90;;;;;;5010985;28;20191;-64
2022/06/23 11:09:01;;;;;;;3.63;1.25;;;22.20;74.30;;;;;;5087979;28;20232;-62
2022/06/23 11:11:52;;;;;;;5.35;1.25;;;22.30;74.20;;;;;;5094159;28;20183;-67
2022/06/23 11:14:52;;;;;;;4.55;1.65;;;22.20;74.30;;;;;;5083750;28;20608;-65
2022/06/23 11:17:23;;;;;;;5.05;1.42;;;22.10;74.80;;;;;;5081680;28;20204;-63
2022/06/23 11:20:13;;;;;;;6.13;2.53;;;22.40;74.10;;;;;;5081767;28;20224;-63
2022/06/23 11:22:41;;;;;;;5.15;2.05;;;22.70;74.20;;;;;;5081273;28;20247;-63
2022/06/23 11:25:20;;;;;;;2.60;1.30;;;23.50;72.60;;;;;;5073000;28;20265;-63
2022/06/23 11:28:00;;;;;;;3.85;1.38;;;23.40;71.00;;;;;;5054692;28;20229;-64
2022/06/23 11:30:42;;;;;;;2.25;1.77;;;23.30;71.60;;;;;;5072814;28;20191;-63
2022/06/23 11:33:20;;;;;;;4.05;1.73;;;23.50;71.60;;;;;;5073254;28;20192;-63
2022/06/23 11:36:00;;;;;;;5.13;1.92;;;22.80;72.60;;;;;;5072631;28;20180;-62
2022/06/23 11:38:47;;;;;;;7.68;1.98;;;22.70;73.90;;;;;;5072472;28;20556;-63
2022/06/23 11:41:25;;;;;;;3.47;1.70;;;22.30;74.90;;;;;;5073005;28;20632;-64
2022/06/23 11:43:56;;;;;;;4.57;1.70;;;22.00;75.00;;;;;;5072292;28;20184;-63
2022/06/23 11:46:35;;;;;;;5.47;1.15;;;21.80;75.50;;;;;;5073116;28;20746;-61
2022/06/23 11:49:10;;;;;;;8.32;1.48;;;21.80;75.70;;;;;;5072174;28;20703;-63
2022/06/23 11:51:48;;;;;;;9.07;2.00;;;22.00;75.60;;;;;;5072272;28;20177;-62
2022/06/23 11:54:40;;;;;;;2.05;1.33;;;22.30;75.50;;;;;;5073000;28;20239;-63
2022/06/23 11:57:27;;;;;;;3.08;1.65;;;22.50;74.80;;;;;;5072522;28;20719;-62
2022/06/23 12:00:09;;;;;;;2.15;1.20;;;22.80;74.30;;;;;;5072979;28;20181;-62
2022/06/23 12:03:03;;;;;;;7.63;1.80;;;23.40;73.50;;;;;;5072434;28;20182;-62
2022/06/23 12:05:50;;;;;;;5.85;1.98;;;23.80;71.70;;;;;;5072398;28;20220;-63
2022/06/23 12:08:30;;;;;;;2.58;1.48;;;25.10;69.50;;;;;;5072646;28;20687;-62
2022/06/23 12:10:56;;;;;;;5.57;0.98;;;26.70;67.00;;;;;;5074167;28;20181;-62
2022/06/23 12:13:24;;;;;;;1.73;0.98;;;26.50;63.90;;;;;;5082837;28;20206;-63
2022/06/23 12:15:51;;;;;;;8.35;1.50;;;25.50;65.10;;;;;;5072148;28;20170;-64
2022/06/23 12:18:22;;;;;;;12.50;1.73;;;25.30;67.20;;;;;;5066784;28;20185;-63
2022/06/23 12:21:14;;;;;;;2.40;1.33;;;25.20;67.60;;;;;;5071912;28;20219;-66
2022/06/23 12:23:48;;;;;;;3.58;1.40;;;25.30;66.70;;;;;;5053914;28;20173;-63
2022/06/23 12:26:31;;;;;;;7.97;1.55;;;25.50;66.50;;;;;;5087796;28;20256;-62
2022/06/23 12:29:19;;;;;;;2.30;1.40;;;25.70;65.70;;;;;;5091989;28;20205;-63
2022/06/23 12:32:19;;;;;;;7.38;1.52;;;26.80;64.90;;;;;;5091893;28;20169;-63
2022/06/23 12:34:58;;;;;;;1.30;1.20;;;28.60;62.30;;;;;;5073910;28;20208;-65
2022/06/23 12:37:44;;;;;;;6.03;1.45;;;28.60;60.20;;;;;;5091823;28;20670;-64
2022/06/23 12:40:47;;;;;;;1.35;0.90;;;28.50;59.40;;;;;;5091620;28;20176;-65
2022/06/23 12:43:37;;;;;;;2.92;1.23;;;29.70;58.00;;;;;;5092095;28;20183;-62
2022/06/23 12:46:09;;;;;;;2.22;1.30;;;30.60;55.20;;;;;;5091600;28;20173;-63
2022/06/23 12:48:56;;;;;;;2.22;1.17;;;29.60;56.90;;;;;;5090967;28;20676;-63
2022/06/23 12:51:41;;;;;;;3.25;1.90;;;28.80;57.80;;;;;;5092201;28;20177;-65
2022/06/23 12:54:20;;;;;;;1.80;1.38;;;27.10;59.60;;;;;;5092145;28;20185;-62
2022/06/23 12:57:09;;;;;;;6.40;1.30;;;26.20;62.30;;;;;;5091281;28;20173;-65
2022/06/23 12:59:47;;;;;;;3.42;1.33;;;25.70;62.80;;;;;;5092115;28;20213;-63
2022/06/23 13:02:34;;;;;;;1.98;1.10;;;25.30;63.90;;;;;;5092118;28;20193;-62
2022/06/23 13:05:15;;;;;;;1.30;1.10;;;25.10;65.00;;;;;;5092404;28;20181;-65
2022/06/23 13:07:45;;;;;;;7.15;1.70;;;24.90;65.50;;;;;;5091970;28;20203;-64
2022/06/23 13:10:31;;;;;;;7.03;1.75;;;25.00;65.50;;;;;;5091623;28;20165;-63
2022/06/23 13:13:08;;;;;;;3.97;1.42;;;25.00;65.10;;;;;;5091618;28;20173;-64
2022/06/23 13:15:59;;;;;;;5.45;1.70;;;24.70;66.80;;;;;;5073206;28;20169;-64
2022/06/23 13:19:06;;;;;;;5.22;1.70;;;24.60;66.60;;;;;;5091657;28;20292;-64
2022/06/23 13:21:36;;;;;;;10.55;1.92;;;24.60;67.20;;;;;;5090124;28;20185;-64
2022/06/23 13:24:08;;;;;;;3.90;1.50;;;24.10;68.70;;;;;;5091370;28;20228;-64
2022/06/23 13:26:46;;;;;;;5.65;1.80;;;23.80;68.90;;;;;;5090961;28;20647;-68
2022/06/23 13:29:12;;;;;;;4.07;1.95;;;23.80;69.50;;;;;;5091247;28;20219;-64
2022/06/23 13:32:09;;;;;;;3.28;1.88;;;23.70;70.40;;;;;;5091307;28;20173;-64
2022/06/23 13:35:01;;;;;;;2.50;1.45;;;23.30;70.50;;;;;;5091287;28;20679;-65
2022/06/23 13:37:44;;;;;;;6.40;1.90;;;23.00;72.60;;;;;;5070766;28;20716;-64
2022/06/23 13:40:23;;;;;;;3.55;1.67;;;22.80;72.30;;;;;;5070886;28;20201;-63
2022/06/23 13:43:00;;;;;;;7.35;1.70;;;23.10;72.30;;;;;;5070505;28;20162;-63
2022/06/23 13:45:41;;;;;;;3.13;1.52;;;23.90;70.10;;;;;;5070882;28;20177;-63
2022/06/23 13:48:20;;;;;;;2.20;1.30;;;24.60;67.70;;;;;;5070272;28;20595;-64
2022/06/23 13:50:56;;;;;;;5.32;1.90;;;24.80;67.10;;;;;;5070472;28;20549;-63
2022/06/23 13:53:41;;;;;;;4.05;1.38;;;25.30;66.10;;;;;;5071012;28;20258;-66
2022/06/23 13:56:34;;;;;;;2.53;1.50;;;25.20;66.00;;;;;;5070640;28;20174;-63
2022/06/23 13:59:03;;;;;;;6.50;1.73;;;24.50;67.50;;;;;;5070517;28;20162;-63
2022/06/23 14:01:52;;;;;;;6.82;2.03;;;24.20;68.60;;;;;;5070021;28;20174;-63